sensor_id;sensor_type;location;lat;lon;timestamp;pressure;altitude;pressure_sealevel;temperature;humidity
55351;BME280;62194;49.480;10.986;2023-02-10T00:00:03;100047.31;;;-4.54;85.37
55351;BME280;62194;49.480;10.986;2023-02-10T00:00:09;100056.31;;;-4.55;85.26
55351;BME280;62194;49.480;10.986;2023-02-10T00:00:14;100048.31;;;-4.55;85.30
55351;BME280;62194;49.480;10.986;2023-02-10T00:00:20;100051.84;;;-4.54;85.12
55351;BME280;62194;49.480;10.986;2023-02-10T00:00:25;100051.63;;;-4.53;85.43
55351;BME280;62194;49.480;10.986;2023-02-10T00:00:30;100057.75;;;-4.52;85.37
55351;BME280;62194;49.480;10.986;2023-02-10T00:00:36;100055.91;;;-4.52;85.56
55351;BME280;62194;49.480;10.986;2023-02-10T00:00:41;100062.28;;;-4.53;85.32
55351;BME280;62194;49.480;10.986;2023-02-10T00:00:46;100046.69;;;-4.56;85.16
55351;BME280;62194;49.480;10.986;2023-02-10T00:00:51;100057.97;;;-4.54;85.49
55351;BME280;62194;49.480;10.986;2023-02-10T00:01:04;100060.44;;;-4.45;85.21
55351;BME280;62194;49.480;10.986;2023-02-10T00:01:15;100060.25;;;-4.44;85.23
55351;BME280;62194;49.480;10.986;2023-02-10T00:01:26;100056.13;;;-4.47;84.61
55351;BME280;62194;49.480;10.986;2023-02-10T00:01:31;100054.69;;;-4.49;84.57
55351;BME280;62194;49.480;10.986;2023-02-10T00:01:37;100060.03;;;-4.49;84.30
55351;BME280;62194;49.480;10.986;2023-02-10T00:01:42;100048.78;;;-4.51;84.63
55351;BME280;62194;49.480;10.986;2023-02-10T00:01:47;100056.75;;;-4.51;84.71
55351;BME280;62194;49.480;10.986;2023-02-10T00:01:53;100053.25;;;-4.52;84.64
55351;BME280;62194;49.480;10.986;2023-02-10T00:01:58;100053.25;;;-4.52;84.36
55351;BME280;62194;49.480;10.986;2023-02-10T00:02:03;100061.88;;;-4.50;84.21
55351;BME280;62194;49.480;10.986;2023-02-10T00:02:09;100059.59;;;-4.53;84.35
55351;BME280;62194;49.480;10.986;2023-02-10T00:02:14;100062.28;;;-4.53;84.29
55351;BME280;62194;49.480;10.986;2023-02-10T00:02:19;100061.44;;;-4.53;84.51
55351;BME280;62194;49.480;10.986;2023-02-10T00:02:25;100061.88;;;-4.50;84.63
55351;BME280;62194;49.480;10.986;2023-02-10T00:02:30;100047.31;;;-4.54;84.84
55351;BME280;62194;49.480;10.986;2023-02-10T00:02:35;100056.75;;;-4.51;84.33
55351;BME280;62194;49.480;10.986;2023-02-10T00:02:40;100062.50;;;-4.48;84.30
55351;BME280;62194;49.480;10.986;2023-02-10T00:02:46;100054.91;;;-4.51;84.27
55351;BME280;62194;49.480;10.986;2023-02-10T00:02:51;100053.06;;;-4.50;84.16
55351;BME280;62194;49.480;10.986;2023-02-10T00:02:56;100056.53;;;-4.50;84.40
55351;BME280;62194;49.480;10.986;2023-02-10T00:03:01;100056.31;;;-4.48;84.46
55351;BME280;62194;49.480;10.986;2023-02-10T00:03:07;100060.66;;;-4.47;84.45
55351;BME280;62194;49.480;10.986;2023-02-10T00:03:12;100052.84;;;-4.49;84.39
55351;BME280;62194;49.480;10.986;2023-02-10T00:03:17;100035.22;;;-4.56;84.37
55351;BME280;62194;49.480;10.986;2023-02-10T00:03:23;100048.34;;;-4.48;84.48
55351;BME280;62194;49.480;10.986;2023-02-10T00:03:28;100051.84;;;-4.48;84.69
55351;BME280;62194;49.480;10.986;2023-02-10T00:03:34;100046.94;;;-4.51;85.02
55351;BME280;62194;49.480;10.986;2023-02-10T00:03:40;100051.44;;;-4.51;84.92
55351;BME280;62194;49.480;10.986;2023-02-10T00:03:46;100046.94;;;-4.51;84.86
55351;BME280;62194;49.480;10.986;2023-02-10T00:03:51;100055.50;;;-4.49;84.96
55351;BME280;62194;49.480;10.986;2023-02-10T00:03:57;100055.50;;;-4.49;84.86
55351;BME280;62194;49.480;10.986;2023-02-10T00:04:03;100054.69;;;-4.49;85.21
55351;BME280;62194;49.480;10.986;2023-02-10T00:04:11;100058.00;;;-4.47;85.11
55351;BME280;62194;49.480;10.986;2023-02-10T00:04:16;100048.78;;;-4.44;84.80
55351;BME280;62194;49.480;10.986;2023-02-10T00:04:22;100046.72;;;-4.42;84.56
55351;BME280;62194;49.480;10.986;2023-02-10T00:04:27;100051.88;;;-4.34;84.60
55351;BME280;62194;49.480;10.986;2023-02-10T00:04:32;100047.34;;;-4.34;84.45
55351;BME280;62194;49.480;10.986;2023-02-10T00:04:38;100053.28;;;-4.32;84.07
55351;BME280;62194;49.480;10.986;2023-02-10T00:04:43;100050.00;;;-4.34;84.39
55351;BME280;62194;49.480;10.986;2023-02-10T00:04:48;100054.53;;;-4.34;84.10
55351;BME280;62194;49.480;10.986;2023-02-10T00:04:54;100051.06;;;-4.35;84.04
55351;BME280;62194;49.480;10.986;2023-02-10T00:04:59;100048.56;;;-4.36;84.16
55351;BME280;62194;49.480;10.986;2023-02-10T00:05:04;100048.56;;;-4.36;83.98
55351;BME280;62194;49.480;10.986;2023-02-10T00:05:10;100049.78;;;-4.39;84.15
55351;BME280;62194;49.480;10.986;2023-02-10T00:05:15;100048.78;;;-4.38;84.21
55351;BME280;62194;49.480;10.986;2023-02-10T00:05:20;100053.50;;;-4.33;84.68
55351;BME280;62194;49.480;10.986;2023-02-10T00:05:26;100047.13;;;-4.39;84.98
55351;BME280;62194;49.480;10.986;2023-02-10T00:05:32;100054.94;;;-4.37;84.89
55351;BME280;62194;49.480;10.986;2023-02-10T00:05:37;100054.94;;;-4.37;84.84
55351;BME280;62194;49.480;10.986;2023-02-10T00:05:43;100055.75;;;-4.37;85.09
55351;BME280;62194;49.480;10.986;2023-02-10T00:05:48;100044.69;;;-4.40;85.06
55351;BME280;62194;49.480;10.986;2023-02-10T00:05:54;100050.59;;;-4.38;84.71
55351;BME280;62194;49.480;10.986;2023-02-10T00:05:59;100048.56;;;-4.36;84.79
55351;BME280;62194;49.480;10.986;2023-02-10T00:06:06;100049.78;;;-4.39;84.86
55351;BME280;62194;49.480;10.986;2023-02-10T00:06:13;100049.38;;;-4.42;84.61
55351;BME280;62194;49.480;10.986;2023-02-10T00:06:20;100042.22;;;-4.42;84.77
55351;BME280;62194;49.480;10.986;2023-02-10T00:06:27;100049.38;;;-4.42;84.68
55351;BME280;62194;49.480;10.986;2023-02-10T00:06:32;100051.22;;;-4.43;84.79
55351;BME280;62194;49.480;10.986;2023-02-10T00:06:38;100044.47;;;-4.45;84.67
55351;BME280;62194;49.480;10.986;2023-02-10T00:06:43;100045.50;;;-4.47;84.29
55351;BME280;62194;49.480;10.986;2023-02-10T00:06:49;100039.53;;;-4.49;84.33
55351;BME280;62194;49.480;10.986;2023-02-10T00:06:54;100050.00;;;-4.47;84.58
55351;BME280;62194;49.480;10.986;2023-02-10T00:06:59;100051.44;;;-4.44;84.67
55351;BME280;62194;49.480;10.986;2023-02-10T00:07:04;100048.97;;;-4.46;84.83
55351;BME280;62194;49.480;10.986;2023-02-10T00:07:10;100044.47;;;-4.45;84.65
55351;BME280;62194;49.480;10.986;2023-02-10T00:07:15;100052.25;;;-4.44;84.90
55351;BME280;62194;49.480;10.986;2023-02-10T00:07:20;100045.72;;;-4.41;84.71
55351;BME280;62194;49.480;10.986;2023-02-10T00:07:25;100048.38;;;-4.41;84.60
55351;BME280;62194;49.480;10.986;2023-02-10T00:07:31;100049.19;;;-4.41;84.59
55351;BME280;62194;49.480;10.986;2023-02-10T00:07:36;100046.72;;;-4.42;84.76
55351;BME280;62194;49.480;10.986;2023-02-10T00:07:41;100048.56;;;-4.43;84.63
55351;BME280;62194;49.480;10.986;2023-02-10T00:07:47;100050.00;;;-4.40;84.52
55351;BME280;62194;49.480;10.986;2023-02-10T00:07:52;100044.28;;;-4.44;84.62
55351;BME280;62194;49.480;10.986;2023-02-10T00:07:57;100040.97;;;-4.46;84.84
55351;BME280;62194;49.480;10.986;2023-02-10T00:08:03;100047.13;;;-4.45;84.39
55351;BME280;62194;49.480;10.986;2023-02-10T00:08:08;100047.34;;;-4.47;84.60
55351;BME280;62194;49.480;10.986;2023-02-10T00:08:13;100040.97;;;-4.46;84.69
55351;BME280;62194;49.480;10.986;2023-02-10T00:08:19;100049.78;;;-4.45;84.46
55351;BME280;62194;49.480;10.986;2023-02-10T00:08:24;100047.75;;;-4.50;84.82
55351;BME280;62194;49.480;10.986;2023-02-10T00:08:30;100047.13;;;-4.45;84.35
55351;BME280;62194;49.480;10.986;2023-02-10T00:08:36;100047.53;;;-4.49;84.29
55351;BME280;62194;49.480;10.986;2023-02-10T00:08:42;100046.72;;;-4.49;84.45
55351;BME280;62194;49.480;10.986;2023-02-10T00:08:53;100048.78;;;-4.51;84.34
55351;BME280;62194;49.480;10.986;2023-02-10T00:09:00;100047.94;;;-4.52;84.67
55351;BME280;62194;49.480;10.986;2023-02-10T00:09:06;100047.75;;;-4.50;84.75
55351;BME280;62194;49.480;10.986;2023-02-10T00:09:14;100044.03;;;-4.49;84.24
55351;BME280;62194;49.480;10.986;2023-02-10T00:09:19;100048.16;;;-4.53;84.50
55351;BME280;62194;49.480;10.986;2023-02-10T00:09:25;100034.19;;;-4.55;84.35
55351;BME280;62194;49.480;10.986;2023-02-10T00:09:30;100049.59;;;-4.51;84.27
55351;BME280;62194;49.480;10.986;2023-02-10T00:09:35;100048.16;;;-4.53;84.79
55351;BME280;62194;49.480;10.986;2023-02-10T00:09:40;100045.66;;;-4.55;84.40
55351;BME280;62194;49.480;10.986;2023-02-10T00:09:46;100053.47;;;-4.53;84.48
55351;BME280;62194;49.480;10.986;2023-02-10T00:09:52;100044.66;;;-4.54;84.38
55351;BME280;62194;49.480;10.986;2023-02-10T00:09:58;100045.88;;;-4.56;84.46
55351;BME280;62194;49.480;10.986;2023-02-10T00:10:03;100044.03;;;-4.56;84.40
55351;BME280;62194;49.480;10.986;2023-02-10T00:10:08;100043.44;;;-4.58;84.71
55351;BME280;62194;49.480;10.986;2023-02-10T00:10:14;100051.84;;;-4.54;84.40
55351;BME280;62194;49.480;10.986;2023-02-10T00:10:19;100044.03;;;-4.56;84.26
55351;BME280;62194;49.480;10.986;2023-02-10T00:10:24;100050.00;;;-4.54;84.49
55351;BME280;62194;49.480;10.986;2023-02-10T00:10:29;100053.88;;;-4.56;84.53
55351;BME280;62194;49.480;10.986;2023-02-10T00:10:35;100048.31;;;-4.55;84.83
55351;BME280;62194;49.480;10.986;2023-02-10T00:10:40;100049.19;;;-4.54;84.58
55351;BME280;62194;49.480;10.986;2023-02-10T00:10:45;100048.97;;;-4.53;84.96
55351;BME280;62194;49.480;10.986;2023-02-10T00:10:51;100050.00;;;-4.54;84.99
55351;BME280;62194;49.480;10.986;2023-02-10T00:10:58;100051.63;;;-4.53;84.89
55351;BME280;62194;49.480;10.986;2023-02-10T00:11:06;100050.81;;;-4.53;84.64
55351;BME280;62194;49.480;10.986;2023-02-10T00:11:12;100045.25;;;-4.58;84.63
55351;BME280;62194;49.480;10.986;2023-02-10T00:11:18;100051.41;;;-4.58;84.79
55351;BME280;62194;49.480;10.986;2023-02-10T00:11:24;100051.22;;;-4.56;84.89
55351;BME280;62194;49.480;10.986;2023-02-10T00:11:48;100052.41;;;-4.59;84.69
55351;BME280;62194;49.480;10.986;2023-02-10T00:12:04;100040.16;;;-4.60;84.58
55351;BME280;62194;49.480;10.986;2023-02-10T00:12:12;100048.75;;;-4.58;84.92
55351;BME280;62194;49.480;10.986;2023-02-10T00:12:18;100052.25;;;-4.57;84.38
55351;BME280;62194;49.480;10.986;2023-02-10T00:12:23;100045.47;;;-4.60;84.63
55351;BME280;62194;49.480;10.986;2023-02-10T00:12:29;100056.75;;;-4.58;84.30
55351;BME280;62194;49.480;10.986;2023-02-10T00:12:37;100050.56;;;-4.58;84.21
55351;BME280;62194;49.480;10.986;2023-02-10T00:12:42;100047.91;;;-4.58;84.51
55351;BME280;62194;49.480;10.986;2023-02-10T00:12:48;100041.56;;;-4.64;84.48
55351;BME280;62194;49.480;10.986;2023-02-10T00:12:53;100047.09;;;-4.59;84.62
55351;BME280;62194;49.480;10.986;2023-02-10T00:12:58;100050.97;;;-4.61;84.61
55351;BME280;62194;49.480;10.986;2023-02-10T00:13:03;100039.72;;;-4.63;84.66
55351;BME280;62194;49.480;10.986;2023-02-10T00:13:09;100049.75;;;-4.59;84.56
55351;BME280;62194;49.480;10.986;2023-02-10T00:13:14;100049.16;;;-4.61;84.56
55351;BME280;62194;49.480;10.986;2023-02-10T00:13:19;100046.91;;;-4.64;84.67
55351;BME280;62194;49.480;10.986;2023-02-10T00:13:25;100042.38;;;-4.63;84.43
55351;BME280;62194;49.480;10.986;2023-02-10T00:13:31;100044.25;;;-4.64;85.05
55351;BME280;62194;49.480;10.986;2023-02-10T00:13:38;100043.22;;;-4.63;85.07
55351;BME280;62194;49.480;10.986;2023-02-10T00:13:45;100046.91;;;-4.64;85.12
55351;BME280;62194;49.480;10.986;2023-02-10T00:13:50;100046.69;;;-4.62;85.25
55351;BME280;62194;49.480;10.986;2023-02-10T00:13:56;100043.22;;;-4.63;84.79
55351;BME280;62194;49.480;10.986;2023-02-10T00:14:01;100049.34;;;-4.62;85.01
55351;BME280;62194;49.480;10.986;2023-02-10T00:14:06;100042.56;;;-4.65;85.28
55351;BME280;62194;49.480;10.986;2023-02-10T00:14:16;100036.84;;;-4.68;85.41
55351;BME280;62194;49.480;10.986;2023-02-10T00:14:22;100048.53;;;-4.63;85.24
55351;BME280;62194;49.480;10.986;2023-02-10T00:14:28;100048.31;;;-4.61;85.29
55351;BME280;62194;49.480;10.986;2023-02-10T00:14:34;100041.56;;;-4.64;85.07
55351;BME280;62194;49.480;10.986;2023-02-10T00:14:39;100044.84;;;-4.62;85.09
55351;BME280;62194;49.480;10.986;2023-02-10T00:14:45;100047.50;;;-4.62;nan
55351;BME280;62194;49.480;10.986;2023-02-10T00:14:50;100049.56;;;-4.64;84.96
55351;BME280;62194;49.480;10.986;2023-02-10T00:14:55;100045.25;;;-4.65;85.38
55351;BME280;62194;49.480;10.986;2023-02-10T00:15:00;100053.03;;;-4.63;85.17
55351;BME280;62194;49.480;10.986;2023-02-10T00:15:06;100045.25;;;-4.65;85.58
55351;BME280;62194;49.480;10.986;2023-02-10T00:15:11;100047.72;;;-4.63;85.61
55351;BME280;62194;49.480;10.986;2023-02-10T00:15:17;100052.00;;;-4.62;85.58
55351;BME280;62194;49.480;10.986;2023-02-10T00:15:22;100050.38;;;-4.63;85.63
55351;BME280;62194;49.480;10.986;2023-02-10T00:15:27;100055.31;;;-4.60;85.84
55351;BME280;62194;49.480;10.986;2023-02-10T00:15:32;100053.84;;;-4.63;85.66
55351;BME280;62194;49.480;10.986;2023-02-10T00:15:38;100052.81;;;-4.62;85.33
55351;BME280;62194;49.480;10.986;2023-02-10T00:15:43;100056.13;;;-4.60;85.36
55351;BME280;62194;49.480;10.986;2023-02-10T00:15:48;100056.31;;;-4.61;85.18
55351;BME280;62194;49.480;10.986;2023-02-10T00:15:57;100053.44;;;-4.60;85.51
55351;BME280;62194;49.480;10.986;2023-02-10T00:16:04;100053.63;;;-4.61;85.41
55351;BME280;62194;49.480;10.986;2023-02-10T00:16:12;100057.97;;;-4.60;85.59
55351;BME280;62194;49.480;10.986;2023-02-10T00:16:18;100048.72;;;-4.64;85.42
55351;BME280;62194;49.480;10.986;2023-02-10T00:16:23;100052.22;;;-4.64;85.46
55351;BME280;62194;49.480;10.986;2023-02-10T00:16:28;100053.63;;;-4.61;85.46
55351;BME280;62194;49.480;10.986;2023-02-10T00:16:34;100050.56;;;-4.65;85.53
55351;BME280;62194;49.480;10.986;2023-02-10T00:16:39;100049.16;;;-4.67;85.51
55351;BME280;62194;49.480;10.986;2023-02-10T00:16:45;100037.66;;;-4.68;85.58
55351;BME280;62194;49.480;10.986;2023-02-10T00:16:52;100047.09;;;-4.65;85.41
55351;BME280;62194;49.480;10.986;2023-02-10T00:16:57;100047.91;;;-4.65;85.58
55351;BME280;62194;49.480;10.986;2023-02-10T00:17:03;100051.59;;;-4.66;85.38
55351;BME280;62194;49.480;10.986;2023-02-10T00:17:08;100051.19;;;-4.63;85.49
55351;BME280;62194;49.480;10.986;2023-02-10T00:17:14;100051.19;;;-4.63;85.58
55351;BME280;62194;49.480;10.986;2023-02-10T00:17:22;100049.75;;;-4.65;85.03
55351;BME280;62194;49.480;10.986;2023-02-10T00:17:27;100046.50;;;-4.67;85.16
55351;BME280;62194;49.480;10.986;2023-02-10T00:17:32;100052.00;;;-4.69;84.62
55351;BME280;62194;49.480;10.986;2023-02-10T00:17:38;100049.34;;;-4.69;84.83
55351;BME280;62194;49.480;10.986;2023-02-10T00:17:43;100055.06;;;-4.65;84.70
55351;BME280;62194;49.480;10.986;2023-02-10T00:17:48;100053.63;;;-4.68;84.94
55351;BME280;62194;49.480;10.986;2023-02-10T00:17:53;100059.56;;;-4.66;85.08
55351;BME280;62194;49.480;10.986;2023-02-10T00:17:59;100053.22;;;-4.65;85.35
55351;BME280;62194;49.480;10.986;2023-02-10T00:18:04;100045.63;;;-4.68;85.16
55351;BME280;62194;49.480;10.986;2023-02-10T00:18:09;100049.97;;;-4.67;85.05
55351;BME280;62194;49.480;10.986;2023-02-10T00:18:15;100054.88;;;-4.64;85.08
55351;BME280;62194;49.480;10.986;2023-02-10T00:18:20;100053.44;;;-4.66;84.93
55351;BME280;62194;49.480;10.986;2023-02-10T00:18:26;100057.53;;;-4.64;85.25
55351;BME280;62194;49.480;10.986;2023-02-10T00:18:32;100050.97;;;-4.68;85.22
55351;BME280;62194;49.480;10.986;2023-02-10T00:18:38;100055.69;;;-4.63;85.07
55351;BME280;62194;49.480;10.986;2023-02-10T00:18:43;100048.13;;;-4.66;84.88
55351;BME280;62194;49.480;10.986;2023-02-10T00:18:48;100056.91;;;-4.66;85.29
55351;BME280;62194;49.480;10.986;2023-02-10T00:18:54;100050.78;;;-4.66;84.96
55351;BME280;62194;49.480;10.986;2023-02-10T00:18:59;100048.94;;;-4.66;85.00
55351;BME280;62194;49.480;10.986;2023-02-10T00:19:05;100057.53;;;-4.64;85.13
55351;BME280;62194;49.480;10.986;2023-02-10T00:19:10;100053.22;;;-4.65;84.97
55351;BME280;62194;49.480;10.986;2023-02-10T00:19:15;100042.16;;;-4.68;85.05
55351;BME280;62194;49.480;10.986;2023-02-10T00:19:22;100043.59;;;-4.66;84.79
55351;BME280;62194;49.480;10.986;2023-02-10T00:19:29;100046.66;;;-4.69;84.86
55351;BME280;62194;49.480;10.986;2023-02-10T00:19:38;100049.97;;;-4.67;84.75
55351;BME280;62194;49.480;10.986;2023-02-10T00:19:43;100048.50;;;-4.69;84.81
55351;BME280;62194;49.480;10.986;2023-02-10T00:19:48;100050.97;;;-4.68;84.46
55351;BME280;62194;49.480;10.986;2023-02-10T00:19:54;100051.59;;;-4.66;84.75
55351;BME280;62194;49.480;10.986;2023-02-10T00:19:59;100045.63;;;-4.68;84.80
55351;BME280;62194;49.480;10.986;2023-02-10T00:20:05;100048.94;;;-4.66;84.65
55351;BME280;62194;49.480;10.986;2023-02-10T00:20:12;100050.56;;;-4.65;84.57
55351;BME280;62194;49.480;10.986;2023-02-10T00:20:17;100052.41;;;-4.65;84.71
55351;BME280;62194;49.480;10.986;2023-02-10T00:20:23;100043.59;;;-4.73;84.55
55351;BME280;62194;49.480;10.986;2023-02-10T00:20:28;100045.63;;;-4.68;84.94
55351;BME280;62194;49.480;10.986;2023-02-10T00:20:34;100054.47;;;-4.67;85.20
55351;BME280;62194;49.480;10.986;2023-02-10T00:20:39;100045.84;;;-4.69;85.65
55351;BME280;62194;49.480;10.986;2023-02-10T00:20:44;100044.00;;;-4.69;85.26
55351;BME280;62194;49.480;10.986;2023-02-10T00:20:50;100040.53;;;-4.69;85.45
55351;BME280;62194;49.480;10.986;2023-02-10T00:20:55;100051.38;;;-4.64;85.52
55351;BME280;62194;49.480;10.986;2023-02-10T00:21:16;100055.88;;;-4.65;85.48
55351;BME280;62194;49.480;10.986;2023-02-10T00:21:21;100046.06;;;-4.64;85.34
55351;BME280;62194;49.480;10.986;2023-02-10T00:21:27;100043.81;;;-4.67;85.44
55351;BME280;62194;49.480;10.986;2023-02-10T00:21:32;100040.31;;;-4.68;85.52
55351;BME280;62194;49.480;10.986;2023-02-10T00:21:38;100044.00;;;-4.69;85.38
55351;BME280;62194;49.480;10.986;2023-02-10T00:21:43;100051.59;;;-4.66;85.26
55351;BME280;62194;49.480;10.986;2023-02-10T00:21:49;100054.03;;;-4.64;84.93
55351;BME280;62194;49.480;10.986;2023-02-10T00:21:54;100053.44;;;-4.66;84.67
55351;BME280;62194;49.480;10.986;2023-02-10T00:22:00;100052.00;;;-4.69;84.78
55351;BME280;62194;49.480;10.986;2023-02-10T00:22:06;100050.97;;;-4.68;84.92
55351;BME280;62194;49.480;10.986;2023-02-10T00:22:11;100048.50;;;-4.69;84.98
55351;BME280;62194;49.480;10.986;2023-02-10T00:22:17;100047.06;;;-4.72;85.04
55351;BME280;62194;49.480;10.986;2023-02-10T00:22:22;100048.69;;;-4.71;85.04
55351;BME280;62194;49.480;10.986;2023-02-10T00:22:27;100046.25;;;-4.73;84.97
55351;BME280;62194;49.480;10.986;2023-02-10T00:22:32;100047.69;;;-4.70;85.15
55351;BME280;62194;49.480;10.986;2023-02-10T00:22:38;100052.81;;;-4.68;85.38
55351;BME280;62194;49.480;10.986;2023-02-10T00:22:43;100052.00;;;-4.69;85.39
55351;BME280;62194;49.480;10.986;2023-02-10T00:22:48;100045.84;;;-4.69;85.32
55351;BME280;62194;49.480;10.986;2023-02-10T00:22:54;100047.88;;;-4.72;85.46
55351;BME280;62194;49.480;10.986;2023-02-10T00:22:59;100053.03;;;-4.70;85.58
55351;BME280;62194;49.480;10.986;2023-02-10T00:23:04;100057.53;;;-4.71;85.39
55351;BME280;62194;49.480;10.986;2023-02-10T00:23:12;100053.63;;;-4.68;85.42
55351;BME280;62194;49.480;10.986;2023-02-10T00:23:17;100052.81;;;-4.68;85.36
55351;BME280;62194;49.480;10.986;2023-02-10T00:23:23;100046.88;;;-4.71;85.48
55351;BME280;62194;49.480;10.986;2023-02-10T00:23:28;100059.78;;;-4.67;85.41
55351;BME280;62194;49.480;10.986;2023-02-10T00:23:34;100057.13;;;-4.67;85.42
55351;BME280;62194;49.480;10.986;2023-02-10T00:23:39;100052.63;;;-4.67;85.27
55351;BME280;62194;49.480;10.986;2023-02-10T00:23:45;100050.97;;;-4.68;84.96
55351;BME280;62194;49.480;10.986;2023-02-10T00:23:50;100047.69;;;-4.70;85.00
55351;BME280;62194;49.480;10.986;2023-02-10T00:23:55;100047.69;;;-4.70;84.88
55351;BME280;62194;49.480;10.986;2023-02-10T00:24:02;100053.44;;;-4.66;85.28
55351;BME280;62194;49.480;10.986;2023-02-10T00:24:07;100045.63;;;-4.68;85.31
55351;BME280;62194;49.480;10.986;2023-02-10T00:24:12;100045.84;;;-4.69;84.88
55351;BME280;62194;49.480;10.986;2023-02-10T00:24:19;100050.97;;;-4.68;84.94
55351;BME280;62194;49.480;10.986;2023-02-10T00:24:24;100055.28;;;-4.67;85.06
55351;BME280;62194;49.480;10.986;2023-02-10T00:24:30;100046.66;;;-4.69;85.00
55351;BME280;62194;49.480;10.986;2023-02-10T00:24:36;100047.69;;;-4.70;84.71
55351;BME280;62194;49.480;10.986;2023-02-10T00:24:41;100046.88;;;-4.71;84.59
55351;BME280;62194;49.480;10.986;2023-02-10T00:24:46;100051.81;;;-4.67;84.67
55351;BME280;62194;49.480;10.986;2023-02-10T00:24:52;100049.16;;;-4.67;84.87
55351;BME280;62194;49.480;10.986;2023-02-10T00:24:57;100048.50;;;-4.69;84.84
55351;BME280;62194;49.480;10.986;2023-02-10T00:25:02;100046.66;;;-4.69;84.76
55351;BME280;62194;49.480;10.986;2023-02-10T00:25:08;100047.31;;;-4.67;85.15
55351;BME280;62194;49.480;10.986;2023-02-10T00:25:13;100049.16;;;-4.67;84.97
55351;BME280;62194;49.480;10.986;2023-02-10T00:25:18;100053.44;;;-4.66;84.94
55351;BME280;62194;49.480;10.986;2023-02-10T00:25:24;100052.63;;;-4.67;84.90
55351;BME280;62194;49.480;10.986;2023-02-10T00:25:29;100052.41;;;-4.65;84.88
55351;BME280;62194;49.480;10.986;2023-02-10T00:25:35;100049.16;;;-4.67;84.97
55351;BME280;62194;49.480;10.986;2023-02-10T00:25:40;100047.69;;;-4.70;84.76
55351;BME280;62194;49.480;10.986;2023-02-10T00:25:45;100046.50;;;-4.67;84.66
55351;BME280;62194;49.480;10.986;2023-02-10T00:25:51;100044.81;;;-4.68;84.73
55351;BME280;62194;49.480;10.986;2023-02-10T00:25:56;100050.16;;;-4.68;84.71
55351;BME280;62194;49.480;10.986;2023-02-10T00:26:03;100053.63;;;-4.68;84.56
55351;BME280;62194;49.480;10.986;2023-02-10T00:26:11;100052.63;;;-4.67;84.86
55351;BME280;62194;49.480;10.986;2023-02-10T00:26:17;100044.22;;;-4.71;85.10
55351;BME280;62194;49.480;10.986;2023-02-10T00:26:22;100053.63;;;-4.68;85.10
55351;BME280;62194;49.480;10.986;2023-02-10T00:26:27;100042.38;;;-4.70;84.94
55351;BME280;62194;49.480;10.986;2023-02-10T00:26:32;100042.97;;;-4.68;85.12
55351;BME280;62194;49.480;10.986;2023-02-10T00:26:38;100043.19;;;-4.69;84.78
55351;BME280;62194;49.480;10.986;2023-02-10T00:26:43;100044.41;;;-4.72;85.00
55351;BME280;62194;49.480;10.986;2023-02-10T00:26:49;100048.31;;;-4.68;84.72
55351;BME280;62194;49.480;10.986;2023-02-10T00:26:54;100054.47;;;-4.67;84.72
55351;BME280;62194;49.480;10.986;2023-02-10T00:27:00;100052.00;;;-4.69;85.04
55351;BME280;62194;49.480;10.986;2023-02-10T00:27:05;100047.50;;;-4.68;84.66
55351;BME280;62194;49.480;10.986;2023-02-10T00:27:11;100050.97;;;-4.68;84.50
55351;BME280;62194;49.480;10.986;2023-02-10T00:27:16;100044.00;;;-4.69;84.64
55351;BME280;62194;49.480;10.986;2023-02-10T00:27:28;100055.69;;;-4.63;84.72
55351;BME280;62194;49.480;10.986;2023-02-10T00:27:33;100050.97;;;-4.61;85.01
55351;BME280;62194;49.480;10.986;2023-02-10T00:27:38;100049.56;;;-4.64;85.05
55351;BME280;62194;49.480;10.986;2023-02-10T00:27:43;100050.97;;;-4.61;85.23
55351;BME280;62194;49.480;10.986;2023-02-10T00:27:49;100054.09;;;-4.58;84.84
55351;BME280;62194;49.480;10.986;2023-02-10T00:27:54;100052.63;;;-4.60;84.77
55351;BME280;62194;49.480;10.986;2023-02-10T00:27:59;100055.91;;;-4.58;84.49
55351;BME280;62194;49.480;10.986;2023-02-10T00:28:05;100048.31;;;-4.61;84.63
55351;BME280;62194;49.480;10.986;2023-02-10T00:28:10;100046.50;;;-4.61;84.39
55351;BME280;62194;49.480;10.986;2023-02-10T00:28:15;100055.47;;;-4.62;84.36
55351;BME280;62194;49.480;10.986;2023-02-10T00:28:20;100058.16;;;-4.62;84.91
55351;BME280;62194;49.480;10.986;2023-02-10T00:28:26;100047.50;;;-4.62;84.76
55351;BME280;62194;49.480;10.986;2023-02-10T00:28:33;100046.06;;;-4.64;84.85
55351;BME280;62194;49.480;10.986;2023-02-10T00:28:38;100058.16;;;-4.62;84.42
55351;BME280;62194;49.480;10.986;2023-02-10T00:28:44;100051.38;;;-4.64;84.21
55351;BME280;62194;49.480;10.986;2023-02-10T00:28:49;100043.38;;;-4.64;84.23
55351;BME280;62194;49.480;10.986;2023-02-10T00:28:54;100049.56;;;-4.64;84.21
55351;BME280;62194;49.480;10.986;2023-02-10T00:28:59;100052.00;;;-4.62;84.51
55351;BME280;62194;49.480;10.986;2023-02-10T00:29:05;100050.78;;;-4.60;84.38
55351;BME280;62194;49.480;10.986;2023-02-10T00:29:10;100049.97;;;-4.60;84.47
55351;BME280;62194;49.480;10.986;2023-02-10T00:29:15;100035.38;;;-4.71;84.80
55351;BME280;62194;49.480;10.986;2023-02-10T00:29:21;100052.00;;;-4.62;84.33
55351;BME280;62194;49.480;10.986;2023-02-10T00:29:26;100046.91;;;-4.64;84.80
55351;BME280;62194;49.480;10.986;2023-02-10T00:29:32;100054.66;;;-4.62;84.69
55351;BME280;62194;49.480;10.986;2023-02-10T00:29:37;100047.31;;;-4.67;84.49
55351;BME280;62194;49.480;10.986;2023-02-10T00:29:43;100054.03;;;-4.64;84.63
55351;BME280;62194;49.480;10.986;2023-02-10T00:29:48;100052.81;;;-4.62;84.93
55351;BME280;62194;49.480;10.986;2023-02-10T00:29:54;100042.38;;;-4.63;85.42
55351;BME280;62194;49.480;10.986;2023-02-10T00:29:59;100057.34;;;-4.62;85.35
55351;BME280;62194;49.480;10.986;2023-02-10T00:30:05;100049.56;;;-4.64;85.27
55351;BME280;62194;49.480;10.986;2023-02-10T00:30:11;100049.56;;;-4.64;85.17